Date,TemperatureHighF,TemperatureAvgF,TemperatureLowF,DewpointHighF,DewpointAvgF,DewpointLowF,HumidityHigh,HumidityAvg,HumidityLow,PressureMaxIn,PressureMinIn,WindSpeedMaxMPH,WindSpeedAvgMPH,GustSpeedMaxMPH,PrecipitationSumIn
2013-3-1,41,37,33,34,32,28,90,81,73,30.01,29.96,2,0,5,0.00
2013-3-2,41,36,33,35,32,26,98,86,68,30.05,29.94,2,0,10,0.00
2013-3-3,45,34,27,29,25,21,89,71,50,30.12,30.00,3,1,11,0.00
2013-3-4,62,41,24,38,29,21,95,67,32,30.21,30.04,1,0,2,0.00
2013-3-5,65,48,37,58,44,32,100,87,75,30.07,29.65,4,0,6,0.21
2013-3-6,37,36,34,32,31,30,86,83,81,30.21,29.88,1,0,4,0.00
2013-3-7,63,41,29,43,34,28,98,77,46,30.28,30.18,1,0,4,0.00
2013-3-8,66,43,26,40,32,25,100,71,34,30.35,30.20,1,0,4,0.00
2013-3-9,60,38,31,36,31,29,97,80,40,30.35,30.24,2,0,2,0.00
2013-3-10,70,62,55,48,44,40,77,53,37,30.11,30.08,2,0,7,0.00
2013-3-11,62,55,51,57,53,48,100,92,76,30.08,29.81,3,0,13,1.23
2013-3-12,59,47,37,50,42,36,100,83,56,30.12,29.82,2,0,7,0.00
2013-3-13,56,42,30,38,32,24,100,72,41,30.27,30.09,4,1,9,0.00
2013-3-14,36,31,27,26,23,21,84,73,62,30.39,30.26,1,0,6,0.00
2013-3-15,76,66,54,52,49,46,76,56,40,30.06,29.98,1,0,2,0.00
2013-3-16,79,59,44,55,48,42,96,70,39,30.00,29.86,1,0,4,0.00
2013-3-17,72,65,54,58,54,50,88,68,57,29.95,29.89,1,0,3,0.00
2013-3-18,58,49,45,57,48,45,100,97,88,30.01,29.84,1,0,3,0.41
2013-3-19,65,51,40,46,41,30,100,74,41,30.10,29.91,1,0,7,0.00
2013-3-20,61,45,33,36,31,25,97,64,30,30.15,29.91,2,0,6,0.00
2013-3-21,49,38,29,33,24,17,79,57,35,30.00,29.89,3,0,7,0.00
2013-3-22,53,42,30,39,32,24,86,69,53,30.07,29.98,1,0,4,0.00
2013-3-23,53,46,41,52,45,38,100,96,71,30.03,29.82,1,0,2,0.72
2013-3-24,49,47,40,49,47,37,100,99,89,29.82,29.54,2,0,3,0.75
2013-3-25,42,37,33,37,31,28,92,78,65,30.08,29.69,2,0,5,0.00
2013-3-26,42,35,30,34,30,28,94,80,65,30.31,30.05,3,0,5,0.00
2013-3-27,57,40,26,38,30,25,97,71,44,30.36,30.26,2,0,9,0.00
2013-3-28,64,43,26,39,33,26,99,72,36,30.37,30.24,2,0,5,0.00
2013-3-29,69,48,30,46,37,30,100,69,36,30.36,30.19,1,0,2,0.00
2013-3-30,73,57,43,58,47,40,100,72,44,30.20,30.02,2,0,3,0.39
2013-3-31,63,58,54,63,58,54,100,99,90,30.02,29.86,1,0,3,0.38